Time;durP1;ratioP1;P1;durP2;ratioP2;P2;SDS_P1;SDS_P2;PMS_P1;PMS_P2;Temp;Humidity;BMP_temperature;BMP_pressure;BME280_temperature;BME280_humidity;BME280_pressure;Samples;Min_cycle;Max_cycle;Signal;HPM_P1;HPM_P2
2022/09/23 00:01:10;;;;;;;3.67;2.80;;;14.90;65.40;;;15.34;45.70;98929.16;4973357;28;124790;-72
2022/09/23 00:03:41;;;;;;;3.90;2.70;;;14.90;65.60;;;15.33;45.89;98923.91;4964251;28;114276;-74
2022/09/23 00:06:20;;;;;;;3.57;2.67;;;16.30;67.10;;;15.31;46.05;98929.81;4968856;28;115342;-73
2022/09/23 00:08:48;;;;;;;6.33;2.90;;;14.90;66.10;;;15.28;46.08;98932.47;4981362;28;124421;-73
2022/09/23 00:11:18;;;;;;;3.47;2.70;;;14.80;66.10;;;15.26;46.22;98932.81;4964654;28;124714;-73
2022/09/23 00:13:48;;;;;;;4.03;2.60;;;14.80;66.30;;;15.21;46.18;98925.47;4973675;28;114385;-73
2022/09/23 00:16:23;;;;;;;8.10;3.33;;;14.80;66.40;;;15.20;46.31;98928.59;4980351;28;114117;-73
2022/09/23 00:18:49;;;;;;;4.07;3.30;;;14.80;66.60;;;15.17;46.54;98930.09;4967389;28;123231;-72
2022/09/23 00:21:18;;;;;;;5.07;3.30;;;14.70;66.60;;;15.14;46.33;98924.41;4976769;28;123591;-73
2022/09/23 00:23:45;;;;;;;4.93;3.00;;;14.80;66.90;;;15.12;46.45;98932.25;4981842;28;116094;-73
2022/09/23 00:26:15;;;;;;;3.87;2.90;;;14.70;66.90;;;15.09;46.76;98925.41;4969043;28;115327;-72
2022/09/23 00:28:42;;;;;;;4.50;2.97;;;14.70;67.70;;;15.08;46.54;98934.09;4980952;28;123186;-72
2022/09/23 00:31:22;;;;;;;3.50;2.80;;;14.70;67.20;;;15.04;46.67;98931.16;4964183;28;123786;-73
2022/09/23 00:33:55;;;;;;;4.03;2.67;;;14.60;67.30;;;15.01;46.67;98929.06;4965909;28;114779;-73
2022/09/23 00:36:22;;;;;;;5.07;2.80;;;14.60;67.60;;;14.97;46.80;98928.94;4969527;28;113884;-72
2022/09/23 00:38:49;;;;;;;6.33;3.50;;;14.60;67.80;;;14.95;47.11;98931.25;4977026;28;124608;-74
2022/09/23 00:41:18;;;;;;;3.83;2.90;;;14.50;67.80;;;14.93;47.01;98922.41;4972834;28;123886;-73
2022/09/23 00:43:52;;;;;;;3.30;2.30;;;14.50;68.10;;;14.91;47.09;98923.91;4970743;28;114368;-74
2022/09/23 00:46:33;;;;;;;3.63;2.93;;;14.50;68.40;;;14.88;47.08;98922.59;4976776;28;114229;-74
2022/09/23 00:49:09;;;;;;;3.93;2.80;;;14.50;68.60;;;14.84;47.15;98916.09;4958904;28;123129;-74
2022/09/23 00:51:42;;;;;;;3.80;2.83;;;14.50;68.70;;;14.80;47.18;98915.97;4971752;28;124415;-74
2022/09/23 00:54:09;;;;;;;3.23;2.63;;;14.40;68.70;;;14.78;47.22;98914.69;4973559;28;115233;-75
2022/09/23 00:56:38;;;;;;;3.80;3.00;;;16.30;70.80;;;14.75;47.54;98918.16;4982255;28;114930;-74
2022/09/23 00:59:08;;;;;;;4.37;3.00;;;14.30;69.10;;;14.73;47.48;98912.09;4973875;28;124341;-72
2022/09/23 01:01:36;;;;;;;5.10;3.10;;;14.30;69.30;;;14.69;47.60;98900.81;4973410;28;124915;-73
2022/09/23 01:04:03;;;;;;;4.07;2.90;;;14.30;69.50;;;14.70;47.59;98912.78;4986321;28;114235;-73
2022/09/23 01:06:30;;;;;;;5.10;3.10;;;14.30;69.70;;;14.68;47.62;98906.72;4973870;28;114356;-74
2022/09/23 01:08:57;;;;;;;3.83;2.90;;;14.30;69.80;;;14.67;47.83;98907.84;4973786;28;124022;-73
2022/09/23 01:11:36;;;;;;;4.10;3.10;;;14.20;70.00;;;14.64;47.85;98911.31;4980916;28;123401;-73
2022/09/23 01:14:25;;;;;;;5.10;3.27;;;14.20;70.20;;;14.62;47.86;98908.09;4986217;28;113432;-73
2022/09/23 01:17:38;;;;;;;3.17;2.47;;;14.20;70.40;;;14.56;47.89;98913.00;4980451;28;114011;-73
2022/09/23 01:20:58;;;;;;;4.27;2.90;;;14.20;70.70;;;14.53;48.02;98906.16;4977090;28;124374;-73
2022/09/23 01:24:07;;;;;;;3.90;2.77;;;14.10;70.80;;;14.50;47.93;98903.19;4980802;28;123374;-73
2022/09/23 01:26:50;;;;;;;3.80;2.40;;;14.10;71.00;;;14.47;48.05;98906.66;4985376;28;114263;-73
2022/09/23 01:29:56;;;;;;;4.10;3.00;;;14.00;71.30;;;14.44;48.18;98907.31;4986096;28;113898;-73
2022/09/23 01:32:35;;;;;;;4.60;3.30;;;14.00;71.20;;;14.39;48.36;98891.66;4978819;28;123991;-73
2022/09/23 01:35:29;;;;;;;10.40;2.97;;;14.00;71.30;;;14.36;48.21;98900.66;4986442;28;122694;-73
2022/09/23 01:38:31;;;;;;;3.93;2.80;;;14.00;71.60;;;14.34;48.30;98892.66;4965508;28;113286;-74
2022/09/23 01:41:39;;;;;;;3.20;2.40;;;13.90;71.60;;;14.33;48.29;98893.00;4982302;28;114025;-73
2022/09/23 01:44:14;;;;;;;3.33;2.70;;;13.90;71.80;;;14.31;48.50;98892.50;4977268;28;124511;-73
2022/09/23 01:46:55;;;;;;;3.90;2.80;;;13.90;71.90;;;14.30;48.73;98885.34;4977920;28;123107;-74
2022/09/23 01:49:40;;;;;;;3.17;2.70;;;13.90;72.00;;;14.29;48.52;98887.31;4982552;28;115322;-74
2022/09/23 01:52:17;;;;;;;5.00;2.93;;;13.90;72.00;;;14.27;48.68;98884.03;4997175;28;114841;-72
2022/09/23 01:55:12;;;;;;;4.57;3.30;;;13.80;72.20;;;14.23;48.58;98885.84;4984149;28;124074;-72
2022/09/23 01:57:45;;;;;;;4.90;2.87;;;13.80;72.30;;;14.21;48.72;98890.94;4981545;28;124111;-74
2022/09/23 02:00:17;;;;;;;5.57;2.80;;;13.80;72.40;;;14.18;48.79;98885.22;4979276;28;113963;-73
2022/09/23 02:03:11;;;;;;;2.93;2.63;;;13.80;72.60;;;14.15;48.54;98892.25;4964918;28;113194;-72
2022/09/23 02:05:50;;;;;;;3.30;2.70;;;13.70;72.60;;;14.12;48.78;98877.06;4988545;28;124536;-73
2022/09/23 02:08:28;;;;;;;4.40;2.93;;;13.70;72.80;;;14.11;48.71;98875.44;4981744;28;124386;-71
2022/09/23 02:11:02;;;;;;;5.60;2.93;;;13.70;72.90;;;14.09;48.88;98877.75;4966511;28;113938;-75
2022/09/23 02:13:55;;;;;;;2.93;2.60;;;13.60;72.90;;;14.05;48.87;98876.78;4981779;28;114001;-71
2022/09/23 02:16:32;;;;;;;3.97;3.00;;;13.60;73.10;;;14.04;48.97;98875.16;4986918;28;124399;-72
2022/09/23 02:19:12;;;;;;;5.13;3.30;;;13.60;73.10;;;14.00;48.83;98874.19;4981784;28;123254;-72
2022/09/23 02:21:48;;;;;;;3.80;2.80;;;13.60;73.20;;;13.95;49.01;98871.59;4970656;28;113038;-73
2022/09/23 02:24:21;;;;;;;4.40;2.80;;;13.50;73.20;;;13.92;49.11;98878.63;4968084;28;113978;-72
2022/09/23 02:27:06;;;;;;;4.07;2.90;;;13.50;73.40;;;13.90;49.06;98885.66;4985707;28;124760;-73
2022/09/23 02:29:46;;;;;;;4.03;2.87;;;13.50;73.50;;;13.86;49.13;98874.41;4980710;28;123187;-73
2022/09/23 02:32:15;;;;;;;5.13;2.67;;;13.40;73.40;;;13.82;49.31;98873.44;4981295;28;114355;-72
2022/09/23 02:35:31;;;;;;;2.93;2.50;;;13.70;73.80;;;13.80;48.97;98881.28;4987919;28;113051;-72
2022/09/23 02:38:07;;;;;;;3.20;2.40;;;13.40;73.60;;;13.78;48.98;98877.19;4979734;28;124261;-72
2022/09/23 02:40:44;;;;;;;3.40;2.80;;;13.40;73.70;;;13.76;49.01;98873.97;4976574;28;123898;-72
2022/09/23 02:43:41;;;;;;;3.30;2.20;;;13.30;73.60;;;13.74;49.08;98874.28;4965572;28;114047;-73
2022/09/23 02:46:08;;;;;;;4.87;2.90;;;13.30;73.70;;;13.71;48.91;98872.19;4970169;28;114624;-73
2022/09/23 02:49:09;;;;;;;2.60;2.40;;;13.30;73.70;;;13.69;49.05;98869.72;4968618;28;124127;-73
2022/09/23 02:51:38;;;;;;;3.43;2.20;;;13.30;73.70;;;13.68;49.05;98872.84;4965116;28;123791;-74
2022/09/23 02:54:09;;;;;;;2.90;2.60;;;13.30;73.70;;;13.67;49.02;98866.47;4966802;28;114019;-72
2022/09/23 02:56:36;;;;;;;3.90;2.90;;;13.20;73.60;;;13.64;49.00;98856.00;4973674;28;113960;-71
2022/09/23 02:59:03;;;;;;;3.97;2.63;;;13.20;73.60;;;13.61;49.15;98856.69;4966233;28;124728;-74
2022/09/23 03:02:06;;;;;;;3.13;2.47;;;13.40;73.90;;;13.60;49.17;98857.03;4970240;28;123675;-72
2022/09/23 03:05:11;;;;;;;3.23;2.40;;;13.20;73.90;;;13.56;49.27;98854.06;4974901;28;114814;-72
2022/09/23 03:07:48;;;;;;;2.93;2.20;;;13.10;73.90;;;13.52;49.05;98855.91;4984127;28;114080;-72
2022/09/23 03:10:25;;;;;;;3.80;2.63;;;13.10;73.90;;;13.50;49.43;98858.19;4979551;28;124237;-71
2022/09/23 03:13:28;;;;;;;3.30;2.50;;;13.10;74.10;;;13.46;49.34;98860.81;4988145;28;123885;-71
2022/09/23 03:16:00;;;;;;;3.57;2.90;;;13.00;74.10;;;13.45;49.30;98858.34;4986545;28;113966;-72
2022/09/23 03:18:51;;;;;;;3.37;2.37;;;13.00;74.10;;;13.43;49.42;98855.94;4990714;28;114045;-72
2022/09/23 03:21:32;;;;;;;3.00;2.60;;;13.00;74.30;;;13.42;49.46;98857.06;4966270;28;123874;-73
2022/09/23 03:24:03;;;;;;;3.40;2.63;;;13.00;74.40;;;13.41;49.51;98858.22;4987648;28;123579;-72
2022/09/23 03:26:34;;;;;;;6.43;2.90;;;13.00;74.50;;;13.40;49.55;98855.75;4966759;28;113063;-72
2022/09/23 03:29:10;;;;;;;5.03;2.73;;;13.00;74.60;;;13.40;49.49;98858.53;4976379;28;113896;-72
2022/09/23 03:31:38;;;;;;;3.40;2.20;;;13.00;74.70;;;13.37;49.48;98859.19;4980228;28;124341;-71
2022/09/23 03:34:14;;;;;;;3.60;2.60;;;12.90;74.70;;;13.38;50.19;98860.81;4987300;28;125020;-72
2022/09/23 03:37:00;;;;;;;2.37;2.17;;;12.90;74.80;;;13.35;49.85;98855.94;4981401;28;115153;-72
2022/09/23 03:39:41;;;;;;;3.67;2.83;;;12.90;75.00;;;13.32;49.70;98853.81;4997396;28;115009;-72
2022/09/23 03:42:20;;;;;;;4.23;2.70;;;12.90;75.00;;;13.31;49.70;98853.00;4982317;28;123739;-72
2022/09/23 03:44:51;;;;;;;3.67;2.60;;;12.90;75.10;;;13.28;49.87;98845.34;4985923;28;124666;-72
2022/09/23 03:47:17;;;;;;;3.60;2.60;;;12.90;75.80;;;13.27;50.08;98849.25;4980189;28;114332;-72
2022/09/23 03:49:47;;;;;;;4.40;2.60;;;12.80;75.20;;;13.24;49.88;98847.94;4977812;28;114124;-72
2022/09/23 03:52:15;;;;;;;3.93;2.80;;;12.80;75.30;;;13.24;49.82;98845.16;4982012;28;124043;-73
2022/09/23 03:54:42;;;;;;;3.90;2.50;;;12.80;75.40;;;13.20;50.14;98846.94;4990722;28;124187;-72
2022/09/23 03:57:09;;;;;;;4.40;2.73;;;12.80;75.50;;;13.19;49.92;98850.03;4981877;28;114277;-72
2022/09/23 03:59:36;;;;;;;2.93;2.47;;;12.70;75.50;;;13.16;50.33;98840.41;4980327;28;113365;-72
2022/09/23 04:02:04;;;;;;;3.47;2.67;;;12.70;75.70;;;13.15;50.41;98838.78;4977267;28;124444;-72
2022/09/23 04:04:33;;;;;;;2.60;2.40;;;12.80;76.10;;;13.11;50.68;98843.38;4977059;28;123802;-71
2022/09/23 04:07:00;;;;;;;4.03;2.73;;;12.70;76.10;;;13.08;50.47;98832.91;4985717;28;114451;-72
2022/09/23 04:09:27;;;;;;;3.10;2.77;;;12.60;76.30;;;13.04;50.70;98832.78;4984868;28;113781;-72
2022/09/23 04:11:54;;;;;;;4.60;2.60;;;12.60;76.50;;;13.02;50.86;98825.91;4985730;28;124534;-72
2022/09/23 04:14:21;;;;;;;3.17;2.70;;;12.60;76.70;;;13.01;51.12;98827.88;4984260;28;123819;-71
2022/09/23 04:16:49;;;;;;;4.37;2.87;;;12.80;77.10;;;13.00;50.98;98819.88;4980963;28;114517;-72
2022/09/23 04:19:16;;;;;;;3.10;2.73;;;12.50;77.00;;;12.98;51.13;98820.22;4990070;28;113430;-71
2022/09/23 04:21:43;;;;;;;6.50;3.57;;;12.60;77.40;;;12.97;51.09;98821.34;4978810;28;123855;-72
2022/09/23 04:24:11;;;;;;;4.23;3.27;;;12.50;77.30;;;12.96;51.28;98813.38;4977971;28;124050;-72
2022/09/23 04:26:39;;;;;;;5.37;2.83;;;13.00;78.00;;;12.93;51.28;98825.13;4984686;28;115151;-72
2022/09/23 04:29:06;;;;;;;5.10;3.30;;;12.50;77.70;;;12.90;51.38;98818.28;4988843;28;115330;-72
2022/09/23 04:31:36;;;;;;;4.00;3.20;;;12.40;77.80;;;12.89;51.48;98813.84;4978888;28;123002;-71
2022/09/23 04:34:03;;;;;;;4.87;2.83;;;12.40;78.00;;;12.87;51.40;98816.16;4986770;28;124042;-73
2022/09/23 04:36:29;;;;;;;5.83;3.50;;;12.40;78.10;;;12.88;51.37;98819.75;4979664;28;114249;-71
2022/09/23 04:38:56;;;;;;;3.90;3.10;;;12.40;78.10;;;12.86;51.71;98814.50;4985742;28;112981;-71
2022/09/23 04:41:22;;;;;;;5.43;3.00;;;12.40;78.10;;;12.86;51.35;98816.47;4982200;28;122966;-71
2022/09/23 04:43:49;;;;;;;4.07;3.30;;;12.60;78.40;;;12.85;51.48;98823.19;4982091;28;123971;-72
2022/09/23 04:46:16;;;;;;;4.07;3.20;;;12.40;78.30;;;12.83;51.66;98821.53;4983345;28;113403;-71
2022/09/23 04:48:42;;;;;;;4.77;2.90;;;12.90;78.90;;;12.82;51.62;98825.44;4974592;28;113033;-71
2022/09/23 04:51:16;;;;;;;6.07;3.27;;;12.40;78.40;;;12.82;51.81;98828.22;4989391;28;123977;-72
2022/09/23 04:53:45;;;;;;;4.40;3.37;;;12.30;78.40;;;12.79;51.67;98828.88;4976218;28;124228;-71
2022/09/23 04:56:16;;;;;;;4.63;3.20;;;12.30;78.50;;;12.79;51.82;98820.56;4986125;28;114014;-72
2022/09/23 04:58:44;;;;;;;4.40;3.17;;;12.30;78.50;;;12.78;51.54;98827.22;4983074;28;114020;-72
2022/09/23 05:01:25;;;;;;;4.77;3.33;;;12.30;78.50;;;12.78;51.79;98826.41;4965547;28;123512;-71
2022/09/23 05:03:56;;;;;;;4.60;3.30;;;12.30;78.70;;;12.77;51.57;98833.94;4976347;28;123219;-73
2022/09/23 05:06:24;;;;;;;4.90;3.53;;;12.30;78.70;;;12.75;51.88;98829.84;4968834;28;114752;-72
2022/09/23 05:08:53;;;;;;;5.20;3.73;;;12.30;78.90;;;12.70;52.11;98835.56;4975709;28;114392;-74
2022/09/23 05:11:21;;;;;;;4.57;3.43;;;12.30;79.00;;;12.67;51.83;98828.69;4967297;28;124221;-72
2022/09/23 05:13:50;;;;;;;5.53;3.27;;;12.20;79.00;;;12.65;52.24;98841.25;4969823;28;124001;-72
2022/09/23 05:16:18;;;;;;;11.07;3.93;;;12.30;79.30;;;12.65;52.05;98842.06;4977554;28;115465;-72
2022/09/23 05:18:45;;;;;;;4.67;3.27;;;12.90;80.00;;;12.62;51.99;98842.72;4971493;28;115255;-72
2022/09/23 05:21:16;;;;;;;6.00;3.23;;;12.20;79.40;;;12.59;52.01;98848.91;4978239;28;124209;-71
2022/09/23 05:23:48;;;;;;;9.27;3.70;;;13.50;80.70;;;12.60;51.99;98845.84;4967962;28;123558;-71
2022/09/23 05:26:15;;;;;;;6.10;3.77;;;12.10;79.60;;;12.61;52.28;98843.88;4972955;28;115056;-71
2022/09/23 05:28:41;;;;;;;4.37;3.37;;;12.10;79.60;;;12.63;52.61;98838.81;4969747;28;113555;-72
2022/09/23 05:31:16;;;;;;;6.50;3.80;;;12.10;80.20;;;12.70;52.95;98844.69;4974099;28;123438;-71
2022/09/23 05:33:50;;;;;;;7.33;3.83;;;12.10;80.50;;;12.72;52.58;98834.09;4982053;28;123841;-72
2022/09/23 05:36:19;;;;;;;6.07;3.13;;;12.30;80.50;;;12.76;52.81;98843.41;4970091;28;114569;-73
2022/09/23 05:38:48;;;;;;;6.47;3.70;;;12.20;80.90;;;12.82;53.01;98835.72;4976597;28;114957;-72
2022/09/23 05:41:15;;;;;;;4.37;2.90;;;12.20;80.90;;;12.88;52.50;98844.69;4971503;28;124110;-71
2022/09/23 05:43:42;;;;;;;5.00;3.23;;;12.30;80.80;;;12.91;51.99;98846.81;4972332;28;124316;-72
2022/09/23 05:46:14;;;;;;;5.13;3.30;;;12.30;80.50;;;12.93;52.05;98841.75;4971237;28;114145;-71
2022/09/23 05:48:42;;;;;;;5.73;3.87;;;13.10;81.00;;;12.95;51.93;98848.63;4979783;28;113797;-74
2022/09/23 05:51:16;;;;;;;4.57;3.90;;;12.40;80.10;;;12.96;51.86;98847.47;4985464;28;125433;-73
2022/09/23 05:53:45;;;;;;;6.40;4.50;;;12.30;80.00;;;12.94;51.70;98848.94;4983109;28;122957;-72
2022/09/23 05:56:14;;;;;;;4.63;3.00;;;12.30;80.10;;;12.98;51.54;98844.38;4985149;28;114685;-72
2022/09/23 05:58:40;;;;;;;7.43;3.33;;;12.30;80.20;;;13.01;51.80;98849.25;4969723;28;113116;-71
2022/09/23 06:01:23;;;;;;;5.37;3.80;;;12.40;80.30;;;13.06;51.51;98840.78;4984125;28;123972;-72
2022/09/23 06:03:56;;;;;;;7.70;3.70;;;12.40;80.20;;;13.11;51.89;98842.53;4978496;28;124614;-72
2022/09/23 06:06:29;;;;;;;5.20;4.00;;;12.50;80.20;;;13.15;51.79;98844.34;4982323;28;114415;-72
2022/09/23 06:08:57;;;;;;;6.00;3.47;;;12.50;80.20;;;13.21;51.61;98845.00;4982267;28;116252;-73
2022/09/23 06:11:25;;;;;;;4.60;3.80;;;12.60;80.10;;;13.26;51.71;98831.78;4982848;28;123413;-72
2022/09/23 06:13:59;;;;;;;7.30;3.60;;;12.70;80.10;;;13.35;51.48;98836.50;4967677;28;124331;-71
2022/09/23 06:16:27;;;;;;;4.40;3.40;;;13.40;80.60;;;13.42;51.24;98836.81;4985305;28;114809;-72
2022/09/23 06:18:53;;;;;;;7.33;3.73;;;12.80;79.90;;;13.50;50.99;98833.19;4984728;28;113159;-72
2022/09/23 06:21:20;;;;;;;8.23;3.57;;;12.90;79.80;;;13.57;50.90;98827.97;4986490;28;124506;-73
2022/09/23 06:23:47;;;;;;;4.50;3.00;;;12.90;79.60;;;13.64;50.64;98828.25;4984526;28;123207;-71
2022/09/23 06:26:15;;;;;;;6.73;4.23;;;13.00;79.60;;;13.68;50.72;98829.22;4986660;28;115108;-74
2022/09/23 06:28:43;;;;;;;5.17;3.83;;;13.00;79.30;;;13.73;50.32;98830.19;4984539;28;114545;-73
2022/09/23 06:31:15;;;;;;;7.70;4.73;;;12.40;78.50;;;13.79;50.20;98823.31;4985964;28;124496;-73
2022/09/23 06:33:43;;;;;;;4.00;3.37;;;13.10;79.10;;;13.85;50.17;98821.97;4974520;28;123583;-73
2022/09/23 06:36:13;;;;;;;7.90;4.03;;;13.20;79.10;;;13.90;49.75;98819.81;4972667;28;114558;-73
2022/09/23 06:38:48;;;;;;;11.20;4.17;;;13.20;78.80;;;13.97;49.95;98821.25;4973759;28;113930;-72
2022/09/23 06:41:15;;;;;;;8.20;3.60;;;13.60;79.10;;;14.03;49.89;98817.97;4967978;28;124126;-72
2022/09/23 06:43:41;;;;;;;4.60;3.23;;;13.40;78.70;;;14.09;49.59;98821.38;4969955;28;123620;-72
2022/09/23 06:46:08;;;;;;;7.87;3.60;;;13.40;78.60;;;14.15;49.59;98818.03;4977875;28;114138;-72
2022/09/23 06:48:35;;;;;;;5.47;3.70;;;13.40;78.50;;;14.19;49.49;98818.19;4971478;28;114169;-72
2022/09/23 06:51:06;;;;;;;7.53;3.93;;;13.50;78.50;;;14.24;49.43;98826.34;4967140;28;124576;-71
2022/09/23 06:53:33;;;;;;;5.20;3.60;;;13.60;78.50;;;14.26;49.63;98820.44;4974508;28;124197;-72
2022/09/23 06:56:05;;;;;;;7.60;3.90;;;13.60;78.40;;;14.27;49.53;98827.66;4967988;28;115465;-72
2022/09/23 06:58:34;;;;;;;7.23;3.90;;;13.60;78.30;;;14.30;49.42;98829.75;4970709;28;115116;-73
2022/09/23 07:01:10;;;;;;;8.83;4.00;;;13.60;78.30;;;14.34;49.37;98831.50;4967973;28;124042;-71
2022/09/23 07:03:37;;;;;;;7.03;3.80;;;13.70;78.20;;;14.39;49.13;98833.28;4970608;28;123206;-72
2022/09/23 07:06:05;;;;;;;8.77;4.30;;;13.70;78.10;;;14.42;49.19;98832.59;4975435;28;114131;-76
2022/09/23 07:08:33;;;;;;;10.03;4.37;;;13.70;77.90;;;14.48;48.95;98828.47;4967893;28;114117;-73
2022/09/23 07:11:06;;;;;;;6.57;4.07;;;13.80;77.90;;;14.53;48.89;98825.53;4970908;28;123991;-73
2022/09/23 07:13:33;;;;;;;3.83;3.20;;;13.80;77.80;;;14.57;48.74;98825.66;4970227;28;124430;-78
2022/09/23 07:16:00;;;;;;;6.53;3.60;;;13.80;77.70;;;14.62;48.53;98819.91;4986225;28;115004;-74
2022/09/23 07:18:32;;;;;;;6.60;3.40;;;13.90;77.70;;;14.69;48.57;98819.34;4976037;28;113874;-75
2022/09/23 07:21:13;;;;;;;4.90;3.90;;;14.00;77.70;;;14.79;48.56;98822.53;4970068;28;124075;-74
2022/09/23 07:23:45;;;;;;;5.63;3.87;;;14.10;77.60;;;14.86;48.36;98816.44;4995244;28;122881;-73
2022/09/23 07:26:13;;;;;;;5.47;3.77;;;14.10;77.30;;;14.92;48.16;98814.25;4954023;28;114616;-72
2022/09/23 07:28:40;;;;;;;6.13;3.43;;;14.20;77.20;;;14.97;47.85;98822.41;4981980;28;113996;-73
2022/09/23 07:31:15;;;;;;;6.37;4.07;;;14.20;77.00;;;15.00;47.79;98816.97;4977768;28;124520;-71
2022/09/23 07:33:43;;;;;;;5.40;3.63;;;14.20;76.80;;;15.09;47.85;98816.06;4974624;28;123886;-73
2022/09/23 07:36:13;;;;;;;9.17;3.70;;;14.30;76.80;;;15.13;47.63;98820.63;4971191;28;114072;-70
2022/09/23 07:38:40;;;;;;;9.60;3.57;;;14.40;76.70;;;15.18;47.56;98825.16;4971777;28;113968;-73
2022/09/23 07:41:11;;;;;;;10.10;4.17;;;14.40;76.60;;;15.24;47.58;98826.56;4980775;28;123981;-71
2022/09/23 07:43:38;;;;;;;5.53;3.33;;;14.50;76.60;;;15.28;47.43;98819.13;4981676;28;124550;-73
2022/09/23 07:46:13;;;;;;;8.23;3.83;;;14.50;76.60;;;15.35;47.56;98813.84;4979528;28;115269;-73
2022/09/23 07:48:39;;;;;;;4.93;3.40;;;14.60;76.50;;;15.42;47.49;98816.03;4983196;28;115112;-74
2022/09/23 07:51:17;;;;;;;5.03;3.60;;;14.70;76.40;;;15.51;47.35;98818.75;4980136;28;124250;-72
2022/09/23 07:53:47;;;;;;;6.97;3.50;;;14.80;76.40;;;15.57;47.18;98817.38;4984848;28;124356;-75
2022/09/23 07:56:14;;;;;;;5.37;3.77;;;14.90;76.10;;;15.59;46.97;98809.47;4976648;28;114216;-72
2022/09/23 07:58:41;;;;;;;5.20;4.00;;;14.90;75.90;;;15.61;47.03;98818.31;4978084;28;113778;-75
2022/09/23 08:01:09;;;;;;;7.10;4.07;;;14.90;75.70;;;15.62;47.02;98806.81;4976250;28;124212;-71
2022/09/23 08:03:37;;;;;;;8.13;4.00;;;14.90;75.60;;;15.64;46.85;98815.63;4978904;28;124199;-72
2022/09/23 08:06:13;;;;;;;8.00;3.70;;;15.00;75.50;;;15.67;46.72;98816.91;4972916;28;114247;-73
2022/09/23 08:08:43;;;;;;;5.07;3.53;;;15.00;75.30;;;15.64;46.68;98812.84;4975400;28;114243;-71
2022/09/23 08:11:13;;;;;;;7.00;3.90;;;15.00;75.20;;;15.66;46.78;98809.72;4973727;28;124195;-72
2022/09/23 08:13:40;;;;;;;6.17;3.70;;;15.00;75.30;;;15.71;46.71;98815.09;4968988;28;123399;-74
2022/09/23 08:16:07;;;;;;;4.77;3.50;;;15.10;75.20;;;15.74;46.76;98821.94;4972611;28;113840;-72
2022/09/23 08:18:34;;;;;;;7.17;3.57;;;15.00;75.00;;;15.78;46.81;98814.53;4972645;28;113428;-73
2022/09/23 08:21:04;;;;;;;7.27;3.50;;;15.10;75.10;;;15.85;46.76;98825.91;4970019;28;123739;-72
2022/09/23 08:23:32;;;;;;;8.57;4.97;;;15.20;75.20;;;15.87;46.41;98824.38;4966549;28;124555;-72
2022/09/23 08:26:02;;;;;;;7.40;3.70;;;15.20;74.70;;;15.86;46.57;98814.41;4983562;28;114480;-72
2022/09/23 08:28:29;;;;;;;5.40;4.00;;;15.20;74.80;;;15.89;46.49;98824.84;4978587;28;113449;-71
2022/09/23 08:30:55;;;;;;;5.47;3.77;;;15.30;74.80;;;15.93;46.36;98821.38;4983662;28;126099;-72
2022/09/23 08:33:23;;;;;;;6.10;4.20;;;15.30;74.70;;;15.97;46.52;98813.97;4982007;28;123915;-71
2022/09/23 08:35:50;;;;;;;5.67;3.77;;;15.40;74.70;;;16.01;46.24;98817.66;4979335;28;114248;-71
2022/09/23 08:38:19;;;;;;;4.43;3.40;;;15.40;74.50;;;16.01;46.38;98821.28;4966720;28;114525;-71
2022/09/23 08:40:48;;;;;;;11.20;4.10;;;15.30;74.50;;;16.07;46.38;98814.31;4979204;28;124417;-72
2022/09/23 08:43:31;;;;;;;5.30;3.90;;;15.40;74.50;;;16.10;45.95;98813.59;4983438;28;124125;-72
2022/09/23 08:46:04;;;;;;;6.50;3.47;;;15.50;74.40;;;16.14;46.14;98819.28;4981751;28;114288;-72
2022/09/23 08:48:41;;;;;;;4.63;3.33;;;15.50;74.40;;;16.22;46.01;98820.31;4977347;28;113742;-71
2022/09/23 08:51:14;;;;;;;5.50;3.53;;;15.50;74.30;;;16.28;46.12;98808.59;4979305;28;123771;-71
2022/09/23 08:53:41;;;;;;;5.23;3.60;;;15.60;74.40;;;16.36;45.94;98806.81;4976751;28;122814;-73
2022/09/23 08:56:15;;;;;;;5.90;3.13;;;15.70;74.40;;;16.44;45.84;98810.66;4963491;28;113313;-72
2022/09/23 08:58:58;;;;;;;6.13;3.30;;;15.70;74.30;;;16.49;45.92;98807.63;4978902;28;113938;-71
2022/09/23 09:01:43;;;;;;;5.93;3.77;;;15.80;74.10;;;16.52;45.64;98815.28;4990926;28;123377;-71
2022/09/23 09:04:39;;;;;;;4.67;2.90;;;15.90;74.00;;;16.57;45.60;98815.03;4983518;28;123766;-71
2022/09/23 09:07:05;;;;;;;5.33;3.40;;;15.90;73.80;;;16.63;45.71;98810.03;4987669;28;113576;-71
2022/09/23 09:09:50;;;;;;;4.70;3.30;;;16.60;74.40;;;16.72;45.49;98822.69;4992014;28;114069;-72
2022/09/23 09:12:19;;;;;;;4.20;3.10;;;16.10;73.80;;;16.77;45.55;98813.31;4985831;28;124130;-72
2022/09/23 09:15:06;;;;;;;4.67;3.57;;;16.10;74.30;;;16.80;45.09;98803.41;4991207;28;123858;-73
2022/09/23 09:17:45;;;;;;;5.73;3.07;;;16.10;73.40;;;16.86;45.23;98804.78;4980226;28;114660;-72
2022/09/23 09:20:41;;;;;;;3.83;2.97;;;16.20;73.50;;;16.92;45.41;98800.56;4973175;28;114692;-71
2022/09/23 09:23:24;;;;;;;6.33;3.60;;;16.30;73.60;;;16.95;45.31;98797.06;4974697;28;124617;-72
2022/09/23 09:25:56;;;;;;;7.80;3.40;;;16.30;73.30;;;16.98;45.32;98802.75;4971573;28;124386;-74
2022/09/23 09:28:46;;;;;;;4.50;2.83;;;16.40;73.40;;;17.04;45.23;98797.72;4986695;28;115206;-74
2022/09/23 09:31:30;;;;;;;4.53;3.30;;;16.40;73.40;;;17.11;45.17;98788.72;4981191;28;115435;-70
2022/09/23 09:34:33;;;;;;;3.93;2.63;;;16.50;73.30;;;17.18;45.03;98786.94;4982658;28;124520;-70
2022/09/23 09:37:05;;;;;;;4.27;2.63;;;16.50;73.10;;;17.26;45.10;98779.59;4974475;28;123836;-72
2022/09/23 09:39:34;;;;;;;6.37;3.53;;;16.70;73.30;;;17.31;45.07;98781.31;4981373;28;114474;-70
2022/09/23 09:42:03;;;;;;;5.90;2.73;;;16.70;73.10;;;17.37;44.79;98774.28;4972285;28;113926;-71
2022/09/23 09:44:57;;;;;;;4.63;2.80;;;16.70;73.10;;;17.43;44.73;98778.44;4972354;28;124024;-73
2022/09/23 09:48:36;;;;;;;13.40;3.17;;;16.80;73.00;;;17.44;44.56;98764.13;4973809;28;124441;-75
2022/09/23 09:51:26;;;;;;;10.40;3.57;;;16.80;72.60;;;17.51;44.73;98763.47;4954457;28;114887;-76
2022/09/23 09:53:54;;;;;;;4.60;3.03;;;16.90;72.60;;;17.58;44.57;98746.91;4971128;28;114420;-74
2022/09/23 09:56:30;;;;;;;7.07;3.30;;;16.90;72.50;;;17.62;44.36;98755.38;4984388;28;123456;-77
2022/09/23 09:59:23;;;;;;;5.63;3.20;;;17.00;72.30;;;17.64;44.13;98753.84;4984991;28;123096;-71
2022/09/23 10:02:23;;;;;;;3.23;2.90;;;17.10;72.30;;;17.72;44.42;98746.44;4973294;28;114168;-71
2022/09/23 10:05:02;;;;;;;5.13;2.77;;;17.10;72.30;;;17.82;44.21;98750.72;4978414;28;113853;-70
2022/09/23 10:07:32;;;;;;;6.67;3.13;;;17.20;72.40;;;17.91;44.13;98748.53;4976968;28;124899;-71
2022/09/23 10:10:18;;;;;;;6.30;2.93;;;17.70;72.50;;;18.00;43.89;98740.78;4978746;28;124211;-72
2022/09/23 10:12:47;;;;;;;7.23;3.70;;;17.30;72.00;;;18.08;43.87;98748.16;4976727;28;114315;-71
2022/09/23 10:15:32;;;;;;;3.33;2.53;;;17.40;71.60;;;18.17;43.77;98747.16;4974737;28;113892;-70
2022/09/23 10:18:02;;;;;;;3.40;2.60;;;17.50;71.60;;;18.21;43.27;98746.03;4968685;28;124480;-70
2022/09/23 10:20:35;;;;;;;3.63;2.47;;;17.60;71.20;;;18.28;43.23;98735.03;4992494;28;124136;-71
2022/09/23 10:23:15;;;;;;;8.03;2.90;;;17.70;71.20;;;18.38;43.14;98736.44;4972365;28;115139;-72
2022/09/23 10:25:42;;;;;;;3.50;2.27;;;17.70;70.90;;;18.47;42.92;98731.44;4969463;28;114902;-73
2022/09/23 10:28:41;;;;;;;3.97;2.67;;;17.80;70.70;;;18.52;42.83;98733.94;4980338;28;124516;-72
2022/09/23 10:31:33;;;;;;;4.43;2.70;;;17.90;70.30;;;18.63;42.45;98730.56;4973395;28;124607;-71
2022/09/23 10:34:26;;;;;;;5.03;3.13;;;18.00;70.00;;;18.71;42.53;98730.34;4971954;28;113219;-71
2022/09/23 10:37:12;;;;;;;9.33;3.30;;;18.10;69.80;;;18.82;42.32;98719.38;4966997;28;114793;-71
2022/09/23 10:48:34;;;;;;;4.40;2.37;;;18.40;68.90;;;19.24;41.76;98715.00;4978519;28;114506;-70
2022/09/23 10:51:13;;;;;;;4.50;2.60;;;18.50;69.10;;;19.39;41.61;98708.44;4980848;28;124633;-70
2022/09/23 10:54:09;;;;;;;6.73;2.73;;;18.70;68.80;;;19.51;41.46;98713.06;4970702;28;125356;-72